Pachena No 1 — VD2970 — position and weather

sailwx.info

Track history (hours):
 
Tides and Currents Weather Stations Pressure Air Temp Water Temp Dewpoint Dewpoint Depression Visibility Wind Speed Wind Dir Waves Ship Positions

Pachena No 1

Last reported at 2018-Jan-11 03:59 UTC. Time now 2018-Jan-22 02:45 UTC.
Position N 49°22' W 124°23'.
Warning: this ship's position is 10 days out of date.

Length 20 m.

Type: Fishing. MMSI: 316005100.

Date/timePositionNaut miles runAvg speedWind from/ knotsBaromVisibWave heightAir tempDewpointWater temp
2018-Jan-11 03:59N 49°22' W 124°23'4 6.1
2018-Jan-11 03:23N 49°24' W 124°28'2 2.8
2018-Jan-11 02:50N 49°22' W 124°27'3 6.9
2018-Jan-11 02:28N 49°23' W 124°30'48 7.6
2018-Jan-10 20:10N 49°06' W 123°22'2 9.2
2018-Jan-10 19:58N 49°06' W 123°19'4 0.6
2018-Jan-10 13:11N 49°08' W 123°14'1 6.7
2018-Jan-10 12:59N 49°07' W 123°16'5 7.5
2018-Jan-10 12:20N 49°06' W 123°23'41 8.7
2018-Jan-10 07:33N 49°22' W 124°22'3 2.0
2018-Jan-10 05:55N 49°22' W 124°27'0 0.2
2018-Jan-10 05:27N 49°22' W 124°27'0 0.9
2018-Jan-10 04:56N 49°23' W 124°28'1 1.2
2018-Jan-10 04:10N 49°23' W 124°28'0 1.0
2018-Jan-10 03:57N 49°24' W 124°28'0 0.3
2018-Jan-10 02:39N 49°23' W 124°29'0 0.2
2018-Jan-10 02:14N 49°24' W 124°29'4 1.3
2018-Jan-09 23:03N 49°23' W 124°23'42 2.5
2018-Jan-09 05:56N 49°01' W 123°28'7 8.2
2018-Jan-09 05:08N 49°05' W 123°20'16 0.6
2018-Jan-08 03:27N 48°55' W 123°39'2 3.7
2018-Jan-08 02:51N 48°55' W 123°36'12 2.5
2018-Jan-07 22:10N 49°02' W 123°23'9 0.7
2018-Jan-07 09:55N 49°07' W 123°12'2 4.1
2018-Jan-07 09:26N 49°08' W 123°15'2 3.8
2018-Jan-07 08:53N 49°07' W 123°17'2 2.9
2018-Jan-07 08:20N 49°08' W 123°19'3 7.9
2018-Jan-07 08:00N 49°10' W 123°18'4 7.1
2018-Jan-07 07:27N 49°14' W 123°18'3 7.2
2018-Jan-07 07:00N 49°17' W 123°16'4 7.7
2018-Jan-07 06:30N 49°17' W 123°10'2 3.0
2018-Jan-07 05:55N 49°16' W 123°08'0 0.0
2018-Jan-07 05:22N 49°16' W 123°08'0 0.0
2018-Jan-07 04:40N 49°16' W 123°08'0 0.0
2018-Jan-07 04:25N 49°16' W 123°08'0 0.0
2018-Jan-07 03:43N 49°16' W 123°08'0 0.0
2018-Jan-07 03:28N 49°16' W 123°08'0 0.0
2018-Jan-07 02:58N 49°16' W 123°08'0 0.0
2018-Jan-07 02:25N 49°16' W 123°08'0 0.0
2018-Jan-07 01:55N 49°16' W 123°08'0 0.0
2018-Jan-07 01:22N 49°16' W 123°08'0 0.0
2018-Jan-07 00:28N 49°16' W 123°08'0 0.0
2018-Jan-06 23:58N 49°16' W 123°08'0 0.0
2018-Jan-06 23:19N 49°16' W 123°08'0 0.0
2018-Jan-06 22:58N 49°16' W 123°08'0 0.0
2018-Jan-06 22:28N 49°16' W 123°08'0 0.0
2018-Jan-06 21:58N 49°16' W 123°08'0 0.0
2018-Jan-06 21:28N 49°16' W 123°08'0 0.0
2018-Jan-06 20:58N 49°16' W 123°08'0 0.0
2018-Jan-06 20:28N 49°16' W 123°08'0 0.0
2018-Jan-06 19:58N 49°16' W 123°08'0 0.0
2018-Jan-06 19:28N 49°16' W 123°08'0 0.0
2018-Jan-06 18:55N 49°16' W 123°08'0 0.0
2018-Jan-06 18:28N 49°16' W 123°08'0 0.0
2018-Jan-06 17:55N 49°16' W 123°08'0 0.0
2018-Jan-06 17:28N 49°16' W 123°08'0 0.0
2018-Jan-06 16:58N 49°16' W 123°08'0 0.0
2018-Jan-06 16:28N 49°16' W 123°08'0 0.0
2018-Jan-06 15:58N 49°16' W 123°08'0 0.0
2018-Jan-06 15:28N 49°16' W 123°08'0 0.0
2018-Jan-06 14:58N 49°16' W 123°08'0 0.0
2018-Jan-06 14:28N 49°16' W 123°08'0 0.0
2018-Jan-06 13:52N 49°16' W 123°08'0 0.0
2018-Jan-06 13:28N 49°16' W 123°08'0 0.0
2018-Jan-06 12:46N 49°16' W 123°08'0 0.0
2018-Jan-06 12:28N 49°16' W 123°08'0 0.0
2018-Jan-06 11:58N 49°16' W 123°08'0 0.0
2018-Jan-06 11:16N 49°16' W 123°08'0 0.0
2018-Jan-06 10:58N 49°16' W 123°08'0 0.0
2018-Jan-06 10:13N 49°16' W 123°08'0 0.0
2018-Jan-06 09:55N 49°16' W 123°08'0 0.0
2018-Jan-06 09:28N 49°16' W 123°08'0 0.0
2018-Jan-06 08:58N 49°16' W 123°08'0 0.0
2018-Jan-06 08:25N 49°16' W 123°08'0 0.0
2018-Jan-06 07:55N 49°16' W 123°08'0 0.0
2018-Jan-06 07:19N 49°16' W 123°08'0 0.0
2018-Jan-06 06:58N 49°16' W 123°08'0 0.0
2018-Jan-06 06:07N 49°16' W 123°08'0 0.0
2018-Jan-06 05:55N 49°16' W 123°08'0 0.0
2018-Jan-06 05:28N 49°16' W 123°08'0 0.0
2018-Jan-06 04:58N 49°16' W 123°08'0 0.0
2018-Jan-06 04:19N 49°16' W 123°08'0 0.0
2018-Jan-06 03:55N 49°16' W 123°08'0 0.0
2018-Jan-06 03:25N 49°16' W 123°08'0 0.0
2018-Jan-06 02:49N 49°16' W 123°08'0 0.0
2018-Jan-06 02:17N 49°16' W 123°08'0 0.0
2018-Jan-06 01:58N 49°16' W 123°08'0 0.0
2018-Jan-06 01:22N 49°16' W 123°08'0 0.0
2018-Jan-06 00:53N 49°16' W 123°08'0 0.0
2018-Jan-06 00:28N 49°16' W 123°08'0 0.0
2018-Jan-05 23:58N 49°16' W 123°08'0 0.0
2018-Jan-05 23:22N 49°16' W 123°08'0 0.0
2018-Jan-05 22:56N 49°16' W 123°08'0 0.0
2018-Jan-05 22:22N 49°16' W 123°08'0 0.0
2018-Jan-05 21:47N 49°16' W 123°08'0 0.0
2018-Jan-05 21:26N 49°16' W 123°08'0 0.0
2018-Jan-05 20:56N 49°16' W 123°08'0 0.0
2018-Jan-05 20:20N 49°16' W 123°08'0 0.0
2018-Jan-05 19:53N 49°16' W 123°08'0 0.0
2018-Jan-05 19:29N 49°16' W 123°08'0 0.0
2018-Jan-05 18:50N 49°16' W 123°08'0 0.0
2018-Jan-05 18:08N 49°16' W 123°08'0 0.0
2018-Jan-05 17:56N 49°16' W 123°08'0 0.0
2018-Jan-05 17:29N 49°16' W 123°08'0 0.0
2018-Jan-05 16:59N 49°16' W 123°08'0 0.0
2018-Jan-05 15:38N 49°16' W 123°08'0 0.0
2018-Jan-05 15:23N 49°16' W 123°08'0 0.0
2018-Jan-05 14:59N 49°16' W 123°08'0 0.0
2018-Jan-05 14:20N 49°16' W 123°08'0 0.0
2018-Jan-05 13:56N 49°16' W 123°08'0 0.0
2018-Jan-05 13:26N 49°16' W 123°08'0 0.0
2018-Jan-05 12:59N 49°16' W 123°08'0 0.0
2018-Jan-05 12:26N 49°16' W 123°08'0 0.0
2018-Jan-05 11:59N 49°16' W 123°08'0 0.0
2018-Jan-05 11:23N 49°16' W 123°08'0 0.0
2018-Jan-05 10:59N 49°16' W 123°08'0 0.0
2018-Jan-05 10:20N 49°16' W 123°08'0 0.0
2018-Jan-05 09:59N 49°16' W 123°08'0 0.0
2018-Jan-05 09:23N 49°16' W 123°08'0 0.0
2018-Jan-05 08:56N 49°16' W 123°08'0 0.0
2018-Jan-05 08:14N 49°16' W 123°08'0 0.0
2018-Jan-05 07:59N 49°16' W 123°08'0 0.0
2018-Jan-05 07:23N 49°16' W 123°08'0 0.0
2018-Jan-05 06:59N 49°16' W 123°08'0 0.0
2018-Jan-05 06:26N 49°16' W 123°08'0 0.0
2018-Jan-05 05:41N 49°16' W 123°08'0 0.0
2018-Jan-05 05:20N 49°16' W 123°08'0 0.0
2018-Jan-05 04:59N 49°16' W 123°08'0 0.0
2018-Jan-05 04:29N 49°16' W 123°08'0 0.0
2018-Jan-05 03:59N 49°16' W 123°08'0 0.0
2018-Jan-05 03:17N 49°16' W 123°08'0 0.0
2018-Jan-05 02:53N 49°16' W 123°08'0 0.0
2018-Jan-05 02:23N 49°16' W 123°08'0 0.0
2018-Jan-05 01:53N 49°16' W 123°08'0 0.0
2018-Jan-05 01:26N 49°16' W 123°08'0 0.0
2018-Jan-05 00:59N 49°16' W 123°08'0 0.0
2018-Jan-05 00:17N 49°16' W 123°08'0 0.0
2018-Jan-04 23:59N 49°16' W 123°08'0 0.0
2018-Jan-04 23:29N 49°16' W 123°08'0 0.0
2018-Jan-04 22:50N 49°16' W 123°08'0 0.0
2018-Jan-04 22:14N 49°16' W 123°08'0 0.0
2018-Jan-04 21:53N 49°16' W 123°08'0 0.0
2018-Jan-04 21:29N 49°16' W 123°08'0 0.0
2018-Jan-04 20:53N 49°16' W 123°08'0 0.0
2018-Jan-04 20:29N 49°16' W 123°08'0 0.0
2018-Jan-04 19:59N 49°16' W 123°08'0 0.0
2018-Jan-04 19:29N 49°16' W 123°08'0 0.0
2018-Jan-04 18:59N 49°16' W 123°08'0 0.0
2018-Jan-04 18:29N 49°16' W 123°08'0 0.0
2018-Jan-04 17:53N 49°16' W 123°08'0 0.0
2018-Jan-04 17:26N 49°16' W 123°08'0 0.0
2018-Jan-04 16:56N 49°16' W 123°08'0 0.0
2018-Jan-03 22:17N 49°16' W 123°08'0 0.0
2018-Jan-03 21:59N 49°16' W 123°08'0 0.0
2018-Jan-03 21:29N 49°16' W 123°08'0 0.0
2018-Jan-03 20:59N 49°16' W 123°08'0 0.0
2018-Jan-03 20:29N 49°16' W 123°08'0 0.0
2018-Jan-03 19:59N 49°16' W 123°08'0 0.0
2018-Jan-03 19:26N 49°16' W 123°08'0 0.0
2018-Jan-03 18:59N 49°16' W 123°08'0 0.0
2018-Jan-03 18:29N 49°16' W 123°08'0 0.0
2018-Jan-03 17:59N 49°16' W 123°08'0 0.0
2018-Jan-03 17:29N 49°16' W 123°08'0 0.0
2018-Jan-03 16:41N 49°16' W 123°08'0 0.0
2018-Jan-03 16:29N 49°16' W 123°08'0 0.0
2018-Jan-03 15:59N 49°16' W 123°08'0 0.0
2018-Jan-03 15:29N 49°16' W 123°08'0 0.0
2018-Jan-03 14:47N 49°16' W 123°08'0 0.0
2018-Jan-03 14:23N 49°16' W 123°08'0 0.0
2018-Jan-03 13:56N 49°16' W 123°08'0 0.0
2018-Jan-03 13:11N 49°16' W 123°08'0 0.0
2018-Jan-03 12:59N 49°16' W 123°08'0 0.0
2018-Jan-03 12:26N 49°16' W 123°08'0 0.0
2018-Jan-03 11:53N 49°16' W 123°08'0 0.0
2018-Jan-03 11:29N 49°16' W 123°08'0 0.0
2018-Jan-03 10:59N 49°16' W 123°08'0 0.0
2018-Jan-03 09:38N 49°16' W 123°08'0 0.0
2018-Jan-03 09:29N 49°16' W 123°08'0 0.0
2018-Jan-03 08:59N 49°16' W 123°08'0 0.0
2018-Jan-03 08:05N 49°16' W 123°08'0 0.0
2018-Jan-03 07:56N 49°16' W 123°08'0 0.0
2018-Jan-03 07:26N 49°16' W 123°08'0 0.0
2018-Jan-03 06:59N 49°16' W 123°08'0 0.0
2018-Jan-03 06:05N 49°16' W 123°08'0 0.0
2018-Jan-03 05:56N 49°16' W 123°08'0 0.0
2018-Jan-03 05:20N 49°16' W 123°08'0 0.0
2018-Jan-03 04:59N 49°16' W 123°08'0 0.0
2018-Jan-03 04:17N 49°16' W 123°08'0 0.0
2018-Jan-03 03:56N 49°16' W 123°08'0 0.0
2018-Jan-03 03:29N 49°16' W 123°08'0 0.0
2018-Jan-03 02:59N 49°16' W 123°08'0 0.0
2018-Jan-03 02:20N 49°16' W 123°08'0 0.0
2018-Jan-03 01:59N 49°16' W 123°08'0 0.0
2018-Jan-03 01:26N 49°16' W 123°08'0 0.0
2018-Jan-03 00:59N 49°16' W 123°08'0 0.0
2018-Jan-03 00:29N 49°16' W 123°08'0 0.0
2018-Jan-02 23:53N 49°16' W 123°08'0 0.0
2018-Jan-02 23:29N 49°16' W 123°08'0 0.0
2018-Jan-02 22:50N 49°16' W 123°08'0 0.0
2018-Jan-02 22:29N 49°16' W 123°08'0 0.0
2018-Jan-02 21:56N 49°16' W 123°08'0 0.0
2018-Jan-02 21:14N 49°16' W 123°08'0 0.0
2018-Jan-02 20:59N 49°16' W 123°08'0 0.0
2018-Jan-02 20:29N 49°16' W 123°08'0 0.0
2018-Jan-02 19:47N 49°16' W 123°08'0 0.0
2018-Jan-02 19:29N 49°16' W 123°08'0 0.0
2018-Jan-02 18:53N 49°16' W 123°08'0 0.0
2018-Jan-02 18:29N 49°16' W 123°08'0 0.0
2018-Jan-02 17:56N 49°16' W 123°08'0 0.0
2018-Jan-02 17:29N 49°16' W 123°08'0 0.0
2018-Jan-02 16:56N 49°16' W 123°08'0 0.0
2018-Jan-02 16:08N 49°16' W 123°08'0 0.0
2018-Jan-02 15:59N 49°16' W 123°08'0 0.0
2018-Jan-02 15:20N 49°16' W 123°08'0 0.0
2018-Jan-02 14:56N 49°16' W 123°08'0 0.0
2018-Jan-02 14:14N 49°16' W 123°08'0 0.0
2018-Jan-02 13:59N 49°16' W 123°08'0 0.0
2018-Jan-02 13:20N 49°16' W 123°08'0 0.0
2018-Jan-02 12:56N 49°16' W 123°08'0 0.0
2018-Jan-02 12:29N 49°16' W 123°08'0 0.0
2018-Jan-02 11:53N 49°16' W 123°08'0 0.0
2018-Jan-02 10:41N 49°16' W 123°08'0 0.0
2018-Jan-02 10:26N 49°16' W 123°08'0 0.0
2018-Jan-02 09:59N 49°16' W 123°08'0 0.0
2018-Jan-02 09:29N 49°16' W 123°08'0 0.0
2018-Jan-02 08:29N 49°16' W 123°08'0 0.0
2018-Jan-02 07:56N 49°16' W 123°08'0 0.0
2018-Jan-02 07:29N 49°16' W 123°08'0 0.0
2018-Jan-02 06:53N 49°16' W 123°08'0 0.0
2018-Jan-02 06:14N 49°16' W 123°08'0 0.0
2018-Jan-02 05:56N 49°16' W 123°08'0 0.0
2018-Jan-02 05:29N 49°16' W 123°08'0 0.0
2018-Jan-02 04:29N 49°16' W 123°08'0 0.0
2018-Jan-02 03:47N 49°16' W 123°08'0 0.0
2018-Jan-02 03:29N 49°16' W 123°08'0 0.0
2018-Jan-02 02:47N 49°16' W 123°08'0 0.0
2018-Jan-02 02:26N 49°16' W 123°08'0 0.0
2018-Jan-02 01:53N 49°16' W 123°08'0 0.0
2018-Jan-02 01:23N 49°16' W 123°08'0 0.0
2018-Jan-02 00:44N 49°16' W 123°08'0 0.0
2018-Jan-02 00:26N 49°16' W 123°08'0 0.0
2018-Jan-01 23:50N 49°16' W 123°08'0 0.0
2018-Jan-01 23:20N 49°16' W 123°08'0 0.0
2018-Jan-01 22:53N 49°16' W 123°08'0 0.0
2018-Jan-01 22:29N 49°16' W 123°08'0 0.0
2018-Jan-01 21:53N 49°16' W 123°08'0 0.0
2018-Jan-01 21:17N 49°16' W 123°08'0 0.0
2018-Jan-01 20:53N 49°16' W 123°08'0 0.0
2018-Jan-01 20:29N 49°16' W 123°08'0 0.0
2018-Jan-01 19:59N 49°16' W 123°08'0 0.0
2018-Jan-01 19:17N 49°16' W 123°08'0 0.0
2018-Jan-01 18:59N 49°16' W 123°08'0 0.0
2018-Jan-01 18:29N 49°16' W 123°08'0 0.0
2018-Jan-01 17:59N 49°16' W 123°08'0 0.0
2018-Jan-01 17:29N 49°16' W 123°08'0 0.0
2018-Jan-01 14:59N 49°16' W 123°08'0 0.0
2018-Jan-01 14:29N 49°16' W 123°08'0 0.0
2018-Jan-01 13:59N 49°16' W 123°08'0 0.0
2018-Jan-01 13:20N 49°16' W 123°08'0 0.0
2018-Jan-01 12:38N 49°16' W 123°08'0 0.0
2018-Jan-01 11:59N 49°16' W 123°08'0 0.0
2018-Jan-01 11:20N 49°16' W 123°08'0 0.0
2018-Jan-01 10:48N 49°16' W 123°08'0 0.0
2018-Jan-01 10:26N 49°16' W 123°08'0 0.0
2018-Jan-01 09:56N 49°16' W 123°08'0 0.0
2018-Jan-01 09:11N 49°16' W 123°08'0 0.0
2018-Jan-01 08:27N 49°16' W 123°08'0 0.0
2018-Jan-01 07:59N 49°16' W 123°08'0 0.0
2018-Jan-01 07:15N 49°16' W 123°08'0 0.0
2018-Jan-01 06:57N 49°16' W 123°08'0 0.0
2018-Jan-01 05:54N 49°16' W 123°08'0 0.0
2018-Jan-01 05:24N 49°16' W 123°08'0 0.0
2018-Jan-01 04:50N 49°16' W 123°08'0 0.0
2018-Jan-01 04:00N 49°16' W 123°08'  
Track history (hours):
 
Tides and Currents Weather Stations Pressure Air Temp Water Temp Dewpoint Dewpoint Depression Visibility Wind Speed Wind Dir Waves Ship Positions

Pachena No 1

Last reported at 2018-Jan-11 03:59 UTC. Time now 2018-Jan-22 02:45 UTC.
Position N 49°22' W 124°23'.
Warning: this ship's position is 10 days out of date.

Length 20 m.

Type: Fishing. MMSI: 316005100.

Date/timePositionNaut miles runAvg speedWind from/ knotsBaromVisibWave heightAir tempDewpointWater temp
2018-Jan-11 03:59N 49°22' W 124°23'4 6.1
2018-Jan-11 03:23N 49°24' W 124°28'2 2.8
2018-Jan-11 02:50N 49°22' W 124°27'3 6.9
2018-Jan-11 02:28N 49°23' W 124°30'48 7.6
2018-Jan-10 20:10N 49°06' W 123°22'2 9.2
2018-Jan-10 19:58N 49°06' W 123°19'4 0.6
2018-Jan-10 13:11N 49°08' W 123°14'1 6.7
2018-Jan-10 12:59N 49°07' W 123°16'5 7.5
2018-Jan-10 12:20N 49°06' W 123°23'41 8.7
2018-Jan-10 07:33N 49°22' W 124°22'3 2.0
2018-Jan-10 05:55N 49°22' W 124°27'0 0.2
2018-Jan-10 05:27N 49°22' W 124°27'0 0.9
2018-Jan-10 04:56N 49°23' W 124°28'1 1.2
2018-Jan-10 04:10N 49°23' W 124°28'0 1.0
2018-Jan-10 03:57N 49°24' W 124°28'0 0.3
2018-Jan-10 02:39N 49°23' W 124°29'0 0.2
2018-Jan-10 02:14N 49°24' W 124°29'4 1.3
2018-Jan-09 23:03N 49°23' W 124°23'42 2.5
2018-Jan-09 05:56N 49°01' W 123°28'7 8.2
2018-Jan-09 05:08N 49°05' W 123°20'16 0.6
2018-Jan-08 03:27N 48°55' W 123°39'2 3.7
2018-Jan-08 02:51N 48°55' W 123°36'12 2.5
2018-Jan-07 22:10N 49°02' W 123°23'9 0.7
2018-Jan-07 09:55N 49°07' W 123°12'2 4.1
2018-Jan-07 09:26N 49°08' W 123°15'2 3.8
2018-Jan-07 08:53N 49°07' W 123°17'2 2.9
2018-Jan-07 08:20N 49°08' W 123°19'3 7.9
2018-Jan-07 08:00N 49°10' W 123°18'4 7.1
2018-Jan-07 07:27N 49°14' W 123°18'3 7.2
2018-Jan-07 07:00N 49°17' W 123°16'4 7.7
2018-Jan-07 06:30N 49°17' W 123°10'2 3.0
2018-Jan-07 05:55N 49°16' W 123°08'0 0.0
2018-Jan-07 05:22N 49°16' W 123°08'0 0.0
2018-Jan-07 04:40N 49°16' W 123°08'0 0.0
2018-Jan-07 04:25N 49°16' W 123°08'0 0.0
2018-Jan-07 03:43N 49°16' W 123°08'0 0.0
2018-Jan-07 03:28N 49°16' W 123°08'0 0.0
2018-Jan-07 02:58N 49°16' W 123°08'0 0.0
2018-Jan-07 02:25N 49°16' W 123°08'0 0.0
2018-Jan-07 01:55N 49°16' W 123°08'0 0.0
2018-Jan-07 01:22N 49°16' W 123°08'0 0.0
2018-Jan-07 00:28N 49°16' W 123°08'0 0.0
2018-Jan-06 23:58N 49°16' W 123°08'0 0.0
2018-Jan-06 23:19N 49°16' W 123°08'0 0.0
2018-Jan-06 22:58N 49°16' W 123°08'0 0.0
2018-Jan-06 22:28N 49°16' W 123°08'0 0.0
2018-Jan-06 21:58N 49°16' W 123°08'0 0.0
2018-Jan-06 21:28N 49°16' W 123°08'0 0.0
2018-Jan-06 20:58N 49°16' W 123°08'0 0.0
2018-Jan-06 20:28N 49°16' W 123°08'0 0.0
2018-Jan-06 19:58N 49°16' W 123°08'0 0.0
2018-Jan-06 19:28N 49°16' W 123°08'0 0.0
2018-Jan-06 18:55N 49°16' W 123°08'0 0.0
2018-Jan-06 18:28N 49°16' W 123°08'0 0.0
2018-Jan-06 17:55N 49°16' W 123°08'0 0.0
2018-Jan-06 17:28N 49°16' W 123°08'0 0.0
2018-Jan-06 16:58N 49°16' W 123°08'0 0.0
2018-Jan-06 16:28N 49°16' W 123°08'0 0.0
2018-Jan-06 15:58N 49°16' W 123°08'0 0.0
2018-Jan-06 15:28N 49°16' W 123°08'0 0.0
2018-Jan-06 14:58N 49°16' W 123°08'0 0.0
2018-Jan-06 14:28N 49°16' W 123°08'0 0.0
2018-Jan-06 13:52N 49°16' W 123°08'0 0.0
2018-Jan-06 13:28N 49°16' W 123°08'0 0.0
2018-Jan-06 12:46N 49°16' W 123°08'0 0.0
2018-Jan-06 12:28N 49°16' W 123°08'0 0.0
2018-Jan-06 11:58N 49°16' W 123°08'0 0.0
2018-Jan-06 11:16N 49°16' W 123°08'0 0.0
2018-Jan-06 10:58N 49°16' W 123°08'0 0.0
2018-Jan-06 10:13N 49°16' W 123°08'0 0.0
2018-Jan-06 09:55N 49°16' W 123°08'0 0.0
2018-Jan-06 09:28N 49°16' W 123°08'0 0.0
2018-Jan-06 08:58N 49°16' W 123°08'0 0.0
2018-Jan-06 08:25N 49°16' W 123°08'0 0.0
2018-Jan-06 07:55N 49°16' W 123°08'0 0.0
2018-Jan-06 07:19N 49°16' W 123°08'0 0.0
2018-Jan-06 06:58N 49°16' W 123°08'0 0.0
2018-Jan-06 06:07N 49°16' W 123°08'0 0.0
2018-Jan-06 05:55N 49°16' W 123°08'0 0.0
2018-Jan-06 05:28N 49°16' W 123°08'0 0.0
2018-Jan-06 04:58N 49°16' W 123°08'0 0.0
2018-Jan-06 04:19N 49°16' W 123°08'0 0.0
2018-Jan-06 03:55N 49°16' W 123°08'0 0.0
2018-Jan-06 03:25N 49°16' W 123°08'0 0.0
2018-Jan-06 02:49N 49°16' W 123°08'0 0.0
2018-Jan-06 02:17N 49°16' W 123°08'0 0.0
2018-Jan-06 01:58N 49°16' W 123°08'0 0.0
2018-Jan-06 01:22N 49°16' W 123°08'0 0.0
2018-Jan-06 00:53N 49°16' W 123°08'0 0.0
2018-Jan-06 00:28N 49°16' W 123°08'0 0.0
2018-Jan-05 23:58N 49°16' W 123°08'0 0.0
2018-Jan-05 23:22N 49°16' W 123°08'0 0.0
2018-Jan-05 22:56N 49°16' W 123°08'0 0.0
2018-Jan-05 22:22N 49°16' W 123°08'0 0.0
2018-Jan-05 21:47N 49°16' W 123°08'0 0.0
2018-Jan-05 21:26N 49°16' W 123°08'0 0.0
2018-Jan-05 20:56N 49°16' W 123°08'0 0.0
2018-Jan-05 20:20N 49°16' W 123°08'0 0.0
2018-Jan-05 19:53N 49°16' W 123°08'0 0.0
2018-Jan-05 19:29N 49°16' W 123°08'0 0.0
2018-Jan-05 18:50N 49°16' W 123°08'0 0.0
2018-Jan-05 18:08N 49°16' W 123°08'0 0.0
2018-Jan-05 17:56N 49°16' W 123°08'0 0.0
2018-Jan-05 17:29N 49°16' W 123°08'0 0.0
2018-Jan-05 16:59N 49°16' W 123°08'0 0.0
2018-Jan-05 15:38N 49°16' W 123°08'0 0.0
2018-Jan-05 15:23N 49°16' W 123°08'0 0.0
2018-Jan-05 14:59N 49°16' W 123°08'0 0.0
2018-Jan-05 14:20N 49°16' W 123°08'0 0.0
2018-Jan-05 13:56N 49°16' W 123°08'0 0.0
2018-Jan-05 13:26N 49°16' W 123°08'0 0.0
2018-Jan-05 12:59N 49°16' W 123°08'0 0.0
2018-Jan-05 12:26N 49°16' W 123°08'0 0.0
2018-Jan-05 11:59N 49°16' W 123°08'0 0.0
2018-Jan-05 11:23N 49°16' W 123°08'0 0.0
2018-Jan-05 10:59N 49°16' W 123°08'0 0.0
2018-Jan-05 10:20N 49°16' W 123°08'0 0.0
2018-Jan-05 09:59N 49°16' W 123°08'0 0.0
2018-Jan-05 09:23N 49°16' W 123°08'0 0.0
2018-Jan-05 08:56N 49°16' W 123°08'0 0.0
2018-Jan-05 08:14N 49°16' W 123°08'0 0.0
2018-Jan-05 07:59N 49°16' W 123°08'0 0.0
2018-Jan-05 07:23N 49°16' W 123°08'0 0.0
2018-Jan-05 06:59N 49°16' W 123°08'0 0.0
2018-Jan-05 06:26N 49°16' W 123°08'0 0.0
2018-Jan-05 05:41N 49°16' W 123°08'0 0.0
2018-Jan-05 05:20N 49°16' W 123°08'0 0.0
2018-Jan-05 04:59N 49°16' W 123°08'0 0.0
2018-Jan-05 04:29N 49°16' W 123°08'0 0.0
2018-Jan-05 03:59N 49°16' W 123°08'0 0.0
2018-Jan-05 03:17N 49°16' W 123°08'0 0.0
2018-Jan-05 02:53N 49°16' W 123°08'0 0.0
2018-Jan-05 02:23N 49°16' W 123°08'0 0.0
2018-Jan-05 01:53N 49°16' W 123°08'0 0.0
2018-Jan-05 01:26N 49°16' W 123°08'0 0.0
2018-Jan-05 00:59N 49°16' W 123°08'0 0.0
2018-Jan-05 00:17N 49°16' W 123°08'0 0.0
2018-Jan-04 23:59N 49°16' W 123°08'0 0.0
2018-Jan-04 23:29N 49°16' W 123°08'0 0.0
2018-Jan-04 22:50N 49°16' W 123°08'0 0.0
2018-Jan-04 22:14N 49°16' W 123°08'0 0.0
2018-Jan-04 21:53N 49°16' W 123°08'0 0.0
2018-Jan-04 21:29N 49°16' W 123°08'0 0.0
2018-Jan-04 20:53N 49°16' W 123°08'0 0.0
2018-Jan-04 20:29N 49°16' W 123°08'0 0.0
2018-Jan-04 19:59N 49°16' W 123°08'0 0.0
2018-Jan-04 19:29N 49°16' W 123°08'0 0.0
2018-Jan-04 18:59N 49°16' W 123°08'0 0.0
2018-Jan-04 18:29N 49°16' W 123°08'0 0.0
2018-Jan-04 17:53N 49°16' W 123°08'0 0.0
2018-Jan-04 17:26N 49°16' W 123°08'0 0.0
2018-Jan-04 16:56N 49°16' W 123°08'0 0.0
2018-Jan-03 22:17N 49°16' W 123°08'0 0.0
2018-Jan-03 21:59N 49°16' W 123°08'0 0.0
2018-Jan-03 21:29N 49°16' W 123°08'0 0.0
2018-Jan-03 20:59N 49°16' W 123°08'0 0.0
2018-Jan-03 20:29N 49°16' W 123°08'0 0.0
2018-Jan-03 19:59N 49°16' W 123°08'0 0.0
2018-Jan-03 19:26N 49°16' W 123°08'0 0.0
2018-Jan-03 18:59N 49°16' W 123°08'0 0.0
2018-Jan-03 18:29N 49°16' W 123°08'0 0.0
2018-Jan-03 17:59N 49°16' W 123°08'0 0.0
2018-Jan-03 17:29N 49°16' W 123°08'0 0.0
2018-Jan-03 16:41N 49°16' W 123°08'0 0.0
2018-Jan-03 16:29N 49°16' W 123°08'0 0.0
2018-Jan-03 15:59N 49°16' W 123°08'0 0.0
2018-Jan-03 15:29N 49°16' W 123°08'0 0.0
2018-Jan-03 14:47N 49°16' W 123°08'0 0.0
2018-Jan-03 14:23N 49°16' W 123°08'0 0.0
2018-Jan-03 13:56N 49°16' W 123°08'0 0.0
2018-Jan-03 13:11N 49°16' W 123°08'0 0.0
2018-Jan-03 12:59N 49°16' W 123°08'0 0.0
2018-Jan-03 12:26N 49°16' W 123°08'0 0.0
2018-Jan-03 11:53N 49°16' W 123°08'0 0.0
2018-Jan-03 11:29N 49°16' W 123°08'0 0.0
2018-Jan-03 10:59N 49°16' W 123°08'0 0.0
2018-Jan-03 09:38N 49°16' W 123°08'0 0.0
2018-Jan-03 09:29N 49°16' W 123°08'0 0.0
2018-Jan-03 08:59N 49°16' W 123°08'0 0.0
2018-Jan-03 08:05N 49°16' W 123°08'0 0.0
2018-Jan-03 07:56N 49°16' W 123°08'0 0.0
2018-Jan-03 07:26N 49°16' W 123°08'0 0.0
2018-Jan-03 06:59N 49°16' W 123°08'0 0.0
2018-Jan-03 06:05N 49°16' W 123°08'0 0.0
2018-Jan-03 05:56N 49°16' W 123°08'0 0.0
2018-Jan-03 05:20N 49°16' W 123°08'0 0.0
2018-Jan-03 04:59N 49°16' W 123°08'0 0.0
2018-Jan-03 04:17N 49°16' W 123°08'0 0.0
2018-Jan-03 03:56N 49°16' W 123°08'0 0.0
2018-Jan-03 03:29N 49°16' W 123°08'0 0.0
2018-Jan-03 02:59N 49°16' W 123°08'0 0.0
2018-Jan-03 02:20N 49°16' W 123°08'0 0.0
2018-Jan-03 01:59N 49°16' W 123°08'0 0.0
2018-Jan-03 01:26N 49°16' W 123°08'0 0.0
2018-Jan-03 00:59N 49°16' W 123°08'0 0.0
2018-Jan-03 00:29N 49°16' W 123°08'0 0.0
2018-Jan-02 23:53N 49°16' W 123°08'0 0.0
2018-Jan-02 23:29N 49°16' W 123°08'0 0.0
2018-Jan-02 22:50N 49°16' W 123°08'0 0.0
2018-Jan-02 22:29N 49°16' W 123°08'0 0.0
2018-Jan-02 21:56N 49°16' W 123°08'0 0.0
2018-Jan-02 21:14N 49°16' W 123°08'0 0.0
2018-Jan-02 20:59N 49°16' W 123°08'0 0.0
2018-Jan-02 20:29N 49°16' W 123°08'0 0.0
2018-Jan-02 19:47N 49°16' W 123°08'0 0.0
2018-Jan-02 19:29N 49°16' W 123°08'0 0.0
2018-Jan-02 18:53N 49°16' W 123°08'0 0.0
2018-Jan-02 18:29N 49°16' W 123°08'0 0.0
2018-Jan-02 17:56N 49°16' W 123°08'0 0.0
2018-Jan-02 17:29N 49°16' W 123°08'0 0.0
2018-Jan-02 16:56N 49°16' W 123°08'0 0.0
2018-Jan-02 16:08N 49°16' W 123°08'0 0.0
2018-Jan-02 15:59N 49°16' W 123°08'0 0.0
2018-Jan-02 15:20N 49°16' W 123°08'0 0.0
2018-Jan-02 14:56N 49°16' W 123°08'0 0.0
2018-Jan-02 14:14N 49°16' W 123°08'0 0.0
2018-Jan-02 13:59N 49°16' W 123°08'0 0.0
2018-Jan-02 13:20N 49°16' W 123°08'0 0.0
2018-Jan-02 12:56N 49°16' W 123°08'0 0.0
2018-Jan-02 12:29N 49°16' W 123°08'0 0.0
2018-Jan-02 11:53N 49°16' W 123°08'0 0.0
2018-Jan-02 10:41N 49°16' W 123°08'0 0.0
2018-Jan-02 10:26N 49°16' W 123°08'0 0.0
2018-Jan-02 09:59N 49°16' W 123°08'0 0.0
2018-Jan-02 09:29N 49°16' W 123°08'0 0.0
2018-Jan-02 08:29N 49°16' W 123°08'0 0.0
2018-Jan-02 07:56N 49°16' W 123°08'0 0.0
2018-Jan-02 07:29N 49°16' W 123°08'0 0.0
2018-Jan-02 06:53N 49°16' W 123°08'0 0.0
2018-Jan-02 06:14N 49°16' W 123°08'0 0.0
2018-Jan-02 05:56N 49°16' W 123°08'0 0.0
2018-Jan-02 05:29N 49°16' W 123°08'0 0.0
2018-Jan-02 04:29N 49°16' W 123°08'0 0.0
2018-Jan-02 03:47N 49°16' W 123°08'0 0.0
2018-Jan-02 03:29N 49°16' W 123°08'0 0.0
2018-Jan-02 02:47N 49°16' W 123°08'0 0.0
2018-Jan-02 02:26N 49°16' W 123°08'0 0.0
2018-Jan-02 01:53N 49°16' W 123°08'0 0.0
2018-Jan-02 01:23N 49°16' W 123°08'0 0.0
2018-Jan-02 00:44N 49°16' W 123°08'0 0.0
2018-Jan-02 00:26N 49°16' W 123°08'0 0.0
2018-Jan-01 23:50N 49°16' W 123°08'0 0.0
2018-Jan-01 23:20N 49°16' W 123°08'0 0.0
2018-Jan-01 22:53N 49°16' W 123°08'0 0.0
2018-Jan-01 22:29N 49°16' W 123°08'0 0.0
2018-Jan-01 21:53N 49°16' W 123°08'0 0.0
2018-Jan-01 21:17N 49°16' W 123°08'0 0.0
2018-Jan-01 20:53N 49°16' W 123°08'0 0.0
2018-Jan-01 20:29N 49°16' W 123°08'0 0.0
2018-Jan-01 19:59N 49°16' W 123°08'0 0.0
2018-Jan-01 19:17N 49°16' W 123°08'0 0.0
2018-Jan-01 18:59N 49°16' W 123°08'0 0.0
2018-Jan-01 18:29N 49°16' W 123°08'0 0.0
2018-Jan-01 17:59N 49°16' W 123°08'0 0.0
2018-Jan-01 17:29N 49°16' W 123°08'0 0.0
2018-Jan-01 14:59N 49°16' W 123°08'0 0.0
2018-Jan-01 14:29N 49°16' W 123°08'0 0.0
2018-Jan-01 13:59N 49°16' W 123°08'0 0.0
2018-Jan-01 13:20N 49°16' W 123°08'0 0.0
2018-Jan-01 12:38N 49°16' W 123°08'0 0.0
2018-Jan-01 11:59N 49°16' W 123°08'0 0.0
2018-Jan-01 11:20N 49°16' W 123°08'0 0.0
2018-Jan-01 10:48N 49°16' W 123°08'0 0.0
2018-Jan-01 10:26N 49°16' W 123°08'0 0.0
2018-Jan-01 09:56N 49°16' W 123°08'0 0.0
2018-Jan-01 09:11N 49°16' W 123°08'0 0.0
2018-Jan-01 08:27N 49°16' W 123°08'0 0.0
2018-Jan-01 07:59N 49°16' W 123°08'0 0.0
2018-Jan-01 07:15N 49°16' W 123°08'0 0.0
2018-Jan-01 06:57N 49°16' W 123°08'0 0.0
2018-Jan-01 05:54N 49°16' W 123°08'0 0.0
2018-Jan-01 05:24N 49°16' W 123°08'0 0.0
2018-Jan-01 04:50N 49°16' W 123°08'0 0.0
2018-Jan-01 04:00N 49°16' W 123°08'  

Dump ship's entire track history